Time;durP1;ratioP1;P1;durP2;ratioP2;P2;SDS_P1;SDS_P2;PMS_P1;PMS_P2;Temp;Humidity;BMP_temperature;BMP_pressure;BME280_temperature;BME280_humidity;BME280_pressure;Samples;Min_cycle;Max_cycle;Signal;HPM_P1;HPM_P2
2022/04/03 00:00:18;;;;;;;;;15.50;12.50;;;;;13.06;37.86;97710.59;4880111;28;102810;-92
2022/04/03 00:02:45;;;;;;;;;17.50;14.00;;;;;13.06;37.54;97710.59;4884802;28;102228;-92
2022/04/03 00:05:12;;;;;;;;;16.50;13.50;;;;;13.05;37.88;97703.56;4880655;28;104189;-92
2022/04/03 00:07:39;;;;;;;;;15.50;13.00;;;;;13.04;37.69;97703.78;4885520;28;102749;-92
2022/04/03 00:10:06;;;;;;;;;16.25;15.00;;;;;13.03;38.10;97705.66;4884224;28;102110;-92
2022/04/03 00:12:33;;;;;;;;;11.25;10.75;;;;;13.05;37.17;97719.84;4879182;28;103221;-92
2022/04/03 00:15:00;;;;;;;;;12.75;12.75;;;;;13.05;37.19;97719.00;4885838;28;104049;-92
2022/04/03 00:17:27;;;;;;;;;12.75;12.00;;;;;13.05;38.11;97719.84;4883934;28;102043;-91
2022/04/03 00:19:54;;;;;;;;;15.75;13.75;;;;;13.06;38.13;97723.38;4869388;28;102176;-92
2022/04/03 00:22:21;;;;;;;;;15.00;13.75;;;;;13.06;37.18;97723.38;4884775;28;104790;-92
2022/04/03 00:24:48;;;;;;;;;11.75;11.75;;;;;13.03;37.43;97719.22;4852023;28;104055;-92
2022/04/03 00:27:15;;;;;;;;;8.75;8.00;;;;;13.04;38.22;97729.03;4874790;28;102828;-91
2022/04/03 00:29:42;;;;;;;;;12.75;10.25;;;;;13.05;37.59;97727.16;4885478;28;102450;-92
2022/04/03 00:32:09;;;;;;;;;11.75;9.25;;;;;13.03;37.56;97723.84;4884724;28;102823;-91
2022/04/03 00:34:35;;;;;;;;;13.25;11.75;;;;;13.01;38.26;97715.94;4884805;28;103482;-92
2022/04/03 00:37:03;;;;;;;;;12.00;10.25;;;;;13.01;38.28;97717.84;4888610;28;104110;-92
2022/04/03 00:39:29;;;;;;;;;9.25;9.00;;;;;13.01;37.16;97724.09;4884061;28;102504;-92
2022/04/03 00:41:56;;;;;;;;;12.50;12.00;;;;;13.01;37.68;97725.97;4880695;28;103965;-92
2022/04/03 00:44:23;;;;;;;;;13.50;10.25;;;;;13.00;37.42;97721.59;4865140;28;104169;-92
2022/04/03 00:46:51;;;;;;;;;14.00;12.75;;;;;12.98;37.62;97714.53;4882618;28;103061;-92
2022/04/03 00:49:18;;;;;;;;;11.50;9.50;;;;;12.98;37.86;97724.53;4864105;28;103012;-91
2022/04/03 00:51:44;;;;;;;;;9.75;7.00;;;;;12.97;38.03;97723.72;4886537;28;104381;-92
2022/04/03 00:54:12;;;;;;;;;10.25;9.50;;;;;12.95;37.59;97719.59;4884189;28;103845;-92
2022/04/03 00:56:39;;;;;;;;;11.00;8.50;;;;;12.97;37.85;97723.72;4874846;28;103031;-92
2022/04/03 00:59:06;;;;;;;;;13.00;8.25;;;;;12.95;37.85;97725.84;4852563;28;102555;-92
2022/04/03 01:01:33;;;;;;;;;9.00;9.00;;;;;12.95;37.47;97716.88;4885077;28;103100;-92
2022/04/03 01:04:00;;;;;;;;;11.50;10.25;;;;;12.96;38.00;97732.13;4881614;28;104081;-92
2022/04/03 01:06:27;;;;;;;;;9.00;8.00;;;;;12.96;37.99;97724.81;4885982;28;102582;-92
2022/04/03 01:08:54;;;;;;;;;10.75;10.00;;;;;12.96;36.98;97729.41;4886434;28;102546;-92
2022/04/03 01:11:21;;;;;;;;;9.50;9.25;;;;;12.96;37.57;97726.69;4859090;28;102971;-92
2022/04/03 01:13:50;;;;;;;;;12.00;7.50;;;;;12.94;37.50;97723.38;4880787;28;104080;-92
2022/04/03 01:16:17;;;;;;;;;8.50;8.00;;;;;12.95;38.02;97725.84;4850859;28;102431;-91
2022/04/03 01:18:44;;;;;;;;;8.50;8.00;;;;;12.95;37.20;97730.47;4882505;28;103404;-92
2022/04/03 01:21:11;;;;;;;;;11.25;8.50;;;;;12.94;37.17;97728.81;4881945;28;102805;-91
2022/04/03 01:23:38;;;;;;;;;8.50;7.00;;;;;12.93;38.01;97727.13;4883829;28;104176;-92
2022/04/03 01:26:05;;;;;;;;;8.25;7.25;;;;;12.93;37.50;97732.56;4878781;28;102522;-92
2022/04/03 01:28:32;;;;;;;;;11.00;8.25;;;;;12.92;37.67;97737.16;4880060;28;103245;-91
2022/04/03 01:30:59;;;;;;;;;10.25;8.50;;;;;12.89;37.53;97726.78;4884553;28;102209;-91
2022/04/03 01:33:26;;;;;;;;;11.00;8.75;;;;;12.90;37.01;97743.91;4886060;28;104280;-92
2022/04/03 01:35:53;;;;;;;;;9.00;8.00;;;;;12.90;38.08;97733.06;4882010;28;102099;-92
2022/04/03 01:38:20;;;;;;;;;9.75;7.75;;;;;12.89;37.00;97736.81;4883252;28;102061;-92
2022/04/03 01:40:47;;;;;;;;;9.00;8.75;;;;;12.90;37.92;97738.47;4868372;28;102233;-92
2022/04/03 01:43:14;;;;;;;;;7.50;7.00;;;;;12.88;37.21;97736.00;4874657;28;103511;-92
2022/04/03 01:45:41;;;;;;;;;6.50;6.50;;;;;12.89;37.72;97736.81;4883697;28;102665;-92
2022/04/03 01:48:08;;;;;;;;;7.00;7.00;;;;;12.85;37.85;97732.94;4882614;28;103891;-92
2022/04/03 01:50:35;;;;;;;;;8.50;7.75;;;;;12.86;38.01;97742.72;4865709;28;102306;-92
2022/04/03 01:53:03;;;;;;;;;8.00;8.00;;;;;12.86;37.68;97745.44;4865615;28;104102;-92
2022/04/03 01:55:30;;;;;;;;;7.75;7.00;;;;;12.86;38.08;97738.13;4882636;28;105221;-92
2022/04/03 01:57:57;;;;;;;;;8.00;7.50;;;;;12.85;37.64;97747.31;4874674;28;102626;-92
2022/04/03 02:00:24;;;;;;;;;6.75;6.00;;;;;12.86;37.07;97748.97;4884583;28;105412;-92
2022/04/03 02:02:51;;;;;;;;;6.50;4.00;;;;;12.87;37.47;97755.25;4869450;28;104286;-92
2022/04/03 02:05:18;;;;;;;;;5.75;5.00;;;;;12.85;37.05;97757.34;4866591;28;102150;-92
2022/04/03 02:07:45;;;;;;;;;7.75;6.00;;;;;12.84;36.99;97753.81;4866789;28;102168;-92
2022/04/03 02:10:12;;;;;;;;;7.50;6.75;;;;;12.86;37.28;97759.00;4882275;28;104091;-92
2022/04/03 02:12:39;;;;;;;;;8.50;6.75;;;;;12.87;37.67;97764.22;4877807;28;103497;-91
2022/04/03 02:15:08;;;;;;;;;7.00;5.25;;;;;12.89;37.91;97764.78;4882756;28;102510;-92
2022/04/03 02:17:35;;;;;;;;;6.75;4.00;;;;;12.92;37.58;97767.00;4882402;28;104874;-92
2022/04/03 02:20:03;;;;;;;;;9.25;8.00;;;;;12.94;37.57;97769.50;4881925;28;102196;-92
2022/04/03 02:22:30;;;;;;;;;6.75;6.50;;;;;12.99;37.40;97769.63;4864668;28;103797;-93
2022/04/03 02:24:57;;;;;;;;;5.00;4.25;;;;;13.02;37.21;97763.72;4885646;28;103612;-92
2022/04/03 02:27:24;;;;;;;;;6.00;6.00;;;;;13.05;37.40;97767.84;4874150;28;102637;-92
2022/04/03 02:29:51;;;;;;;;;8.50;6.75;;;;;13.06;37.41;97770.31;4885473;28;102607;-92
2022/04/03 02:32:18;;;;;;;;;5.75;5.25;;;;;13.09;37.08;97769.84;4881652;28;103942;-92
2022/04/03 02:34:45;;;;;;;;;7.00;7.00;;;;;13.11;36.94;97778.59;4884600;28;102328;-92
2022/04/03 02:37:14;;;;;;;;;4.50;4.00;;;;;13.13;37.46;97781.91;4879851;28;102040;-92
2022/04/03 02:39:42;;;;;;;;;4.75;4.75;;;;;13.16;37.20;97781.44;4885394;28;103024;-92
2022/04/03 02:42:08;;;;;;;;;8.00;7.00;;;;;13.19;37.76;97774.72;4873645;28;104044;-92
2022/04/03 02:44:35;;;;;;;;;6.50;5.50;;;;;13.20;37.05;97782.59;4884966;28;102483;-92
2022/04/03 02:47:02;;;;;;;;;8.00;6.75;;;;;13.23;36.95;97779.44;4882745;28;102668;-92
2022/04/03 02:49:29;;;;;;;;;7.25;5.25;;;;;13.25;36.87;97785.44;4880140;28;104455;-93
2022/04/03 02:51:56;;;;;;;;;7.00;5.00;;;;;13.28;37.12;97784.16;4881901;28;104086;-92
2022/04/03 02:54:23;;;;;;;;;5.50;5.00;;;;;13.28;36.88;97789.59;4881715;28;102180;-92
2022/04/03 02:56:50;;;;;;;;;7.25;6.00;;;;;13.29;36.81;97792.03;4881054;28;102730;-92
2022/04/03 02:59:17;;;;;;;;;5.00;4.75;;;;;13.30;37.44;97798.31;4877696;28;102348;-92
2022/04/03 03:01:43;;;;;;;;;5.25;5.00;;;;;13.30;37.60;97795.59;4883866;28;104113;-91
2022/04/03 03:04:10;;;;;;;;;6.25;5.50;;;;;13.28;36.59;97801.25;4883185;28;105076;-92
2022/04/03 03:06:38;;;;;;;;;4.25;3.75;;;;;13.31;37.05;97799.97;4865447;28;102974;-92
2022/04/03 03:09:04;;;;;;;;;4.00;4.00;;;;;13.32;36.60;97804.34;4884451;28;102308;-92
2022/04/03 03:11:31;;;;;;;;;5.00;5.00;;;;;13.32;36.42;97807.88;4887152;28;104464;-92
2022/04/03 03:13:58;;;;;;;;;6.75;4.50;;;;;13.32;37.40;97807.06;4856034;28;102890;-92
2022/04/03 03:16:25;;;;;;;;;5.00;5.00;;;;;13.35;37.16;97806.56;4865734;28;102754;-92
2022/04/03 03:18:52;;;;;;;;;5.50;5.00;;;;;13.33;36.32;97812.22;4866407;28;102578;-92
2022/04/03 03:21:19;;;;;;;;;4.00;4.00;;;;;13.33;36.78;97814.09;4880770;28;104118;-92
2022/04/03 03:23:46;;;;;;;;;4.00;4.00;;;;;13.34;36.86;97816.59;4865301;28;102591;-91
2022/04/03 03:26:13;;;;;;;;;6.00;5.00;;;;;13.35;36.88;97822.84;4882102;28;103144;-92
2022/04/03 03:28:40;;;;;;;;;5.00;4.00;;;;;13.35;36.41;97825.56;4874133;28;102817;-92
2022/04/03 03:31:07;;;;;;;;;3.50;3.50;;;;;13.33;37.03;97825.78;4881014;28;104115;-92
2022/04/03 03:33:34;;;;;;;;;2.75;2.75;;;;;13.31;37.37;97822.50;4883270;28;105403;-92
2022/04/03 03:36:01;;;;;;;;;4.00;3.00;;;;;13.30;36.27;97836.31;4880062;28;104365;-92
2022/04/03 03:38:28;;;;;;;;;4.00;4.00;;;;;13.30;37.42;97828.16;4865998;28;102304;-92
2022/04/03 03:40:54;;;;;;;;;4.25;3.50;;;;;13.30;36.96;97826.28;4882739;28;104085;-92
2022/04/03 03:43:21;;;;;;;;;4.75;3.75;;;;;13.28;36.48;97822.97;4869047;28;102934;-92
2022/04/03 03:45:48;;;;;;;;;4.25;4.25;;;;;13.28;36.48;97831.09;4880134;28;102391;-92
2022/04/03 03:48:15;;;;;;;;;4.50;4.50;;;;;13.30;36.53;97825.44;4883050;28;102271;-92
2022/04/03 03:50:42;;;;;;;;;5.25;5.25;;;;;13.30;36.23;97825.44;4882406;28;103834;-92
2022/04/03 03:53:09;;;;;;;;;4.00;4.00;;;;;13.29;36.52;97827.34;4876244;28;103074;-92
2022/04/03 03:55:36;;;;;;;;;4.75;4.75;;;;;13.29;36.81;97830.06;4883999;28;102921;-92
2022/04/03 03:58:03;;;;;;;;;3.25;3.00;;;;;13.28;36.31;97833.81;4857912;28;102945;-92
2022/04/03 04:00:30;;;;;;;;;3.00;2.75;;;;;13.28;36.35;97833.03;4884108;28;104101;-92
2022/04/03 04:02:57;;;;;;;;;5.00;4.00;;;;;13.27;37.09;97847.66;4886498;28;103662;-92
2022/04/03 04:05:24;;;;;;;;;3.25;3.00;;;;;13.23;36.98;97844.59;4879961;28;102374;-92
2022/04/03 04:07:52;;;;;;;;;5.50;4.25;;;;;13.26;36.67;97856.84;4884028;28;102483;-92
2022/04/03 04:10:19;;;;;;;;;4.00;3.50;;;;;13.24;37.02;97858.97;4880127;28;104800;-91
2022/04/03 04:12:46;;;;;;;;;4.00;3.00;;;;;13.23;36.68;97866.31;4873525;28;102892;-91
2022/04/03 04:15:13;;;;;;;;;4.75;3.75;;;;;13.22;36.42;97861.09;4878072;28;102327;-92
2022/04/03 04:17:42;;;;;;;;;5.50;3.75;;;;;13.23;36.73;97874.44;4860059;28;105563;-92
2022/04/03 04:20:15;;;;;;;;;4.25;3.50;;;;;13.19;36.90;97870.53;4879172;28;104263;-92
2022/04/03 04:22:43;;;;;;;;;3.00;3.00;;;;;13.18;37.41;97874.34;4865185;28;102589;-92
2022/04/03 04:25:11;;;;;;;;;3.00;3.00;;;;;13.17;37.20;97878.09;4863248;28;102593;-92
2022/04/03 04:27:38;;;;;;;;;4.00;3.00;;;;;13.17;36.43;97875.38;4861873;28;102447;-92
2022/04/03 04:30:06;;;;;;;;;3.00;3.00;;;;;13.17;36.39;97875.38;4877019;28;104433;-91
2022/04/03 04:32:33;;;;;;;;;4.00;3.50;;;;;13.15;37.25;97882.94;4881209;28;102202;-92
2022/04/03 04:34:59;;;;;;;;;5.25;3.50;;;;;13.14;36.95;97886.72;4881029;28;103317;-91
2022/04/03 04:37:26;;;;;;;;;3.75;3.75;;;;;13.16;36.20;97886.47;4882958;28;102532;-91
2022/04/03 04:39:53;;;;;;;;;4.00;3.00;;;;;13.14;36.98;97894.88;4881062;28;104384;-92
2022/04/03 04:42:20;;;;;;;;;4.75;4.00;;;;;13.14;36.35;97902.19;4880442;28;102487;-92
2022/04/03 04:44:47;;;;;;;;;2.50;2.00;;;;;13.13;36.36;97901.34;4857078;28;102635;-92
2022/04/03 04:47:14;;;;;;;;;3.00;3.00;;;;;13.14;36.99;97902.19;4880986;28;102049;-91
2022/04/03 04:49:41;;;;;;;;;4.00;4.00;;;;;13.11;36.66;97906.16;4883165;28;104278;-91
2022/04/03 04:52:08;;;;;;;;;3.50;2.00;;;;;13.11;36.91;97914.31;4879969;28;102255;-92
2022/04/03 04:54:35;;;;;;;;;2.75;2.00;;;;;13.11;36.56;97914.31;4885669;28;102574;-91
2022/04/03 04:57:02;;;;;;;;;6.00;3.00;;;;;13.10;37.25;97930.81;4885698;28;102456;-92
2022/04/03 04:59:31;;;;;;;;;2.00;2.00;;;;;13.10;36.44;97919.97;4875110;28;104355;-92
2022/04/03 05:01:59;;;;;;;;;3.75;3.00;;;;;13.09;36.38;97929.16;4884482;28;102184;-92
2022/04/03 05:04:27;;;;;;;;;2.25;2.25;;;;;13.09;36.31;97932.72;4882729;28;102369;-92
2022/04/03 05:06:54;;;;;;;;;2.25;2.25;;;;;13.08;36.64;97925.63;4868754;28;102579;-91
2022/04/03 05:09:21;;;;;;;;;3.00;2.75;;;;;13.09;36.60;97931.88;4870304;28;104069;-92
2022/04/03 05:11:48;;;;;;;;;3.00;3.00;;;;;13.08;36.42;97936.47;4885469;28;102357;-91
2022/04/03 05:14:15;;;;;;;;;2.75;2.75;;;;;13.07;36.50;97942.13;4855144;28;102700;-92
2022/04/03 05:16:42;;;;;;;;;2.50;2.50;;;;;13.08;37.22;97939.19;4867694;28;102566;-92
2022/04/03 05:19:12;;;;;;;;;2.00;2.00;;;;;13.08;37.22;97947.31;4878042;28;104155;-92
2022/04/03 05:21:40;;;;;;;;;2.75;2.00;;;;;13.08;36.27;97944.63;4867442;28;102355;-92
2022/04/03 05:24:06;;;;;;;;;1.00;1.00;;;;;13.09;36.38;97943.56;4882585;28;102059;-92
2022/04/03 05:26:33;;;;;;;;;3.00;2.00;;;;;13.10;36.92;97953.38;4886919;28;102654;-92
2022/04/03 05:29:05;;;;;;;;;4.00;2.00;;;;;13.10;36.67;97955.25;4873129;28;104355;-92
2022/04/03 05:31:32;;;;;;;;;2.00;1.50;;;;;13.10;37.10;97966.09;4883565;28;102361;-91
2022/04/03 05:34:05;;;;;;;;;2.00;1.75;;;;;13.10;37.27;97968.81;4883714;28;102936;-92
2022/04/03 05:36:32;;;;;;;;;4.25;2.25;;;;;13.10;36.81;97969.66;4885990;28;102612;-92
2022/04/03 05:38:59;;;;;;;;;3.00;2.00;;;;;13.10;36.62;97977.78;4884598;28;104115;-92
2022/04/03 05:41:27;;;;;;;;;3.50;3.00;;;;;13.09;36.42;97969.88;4880710;28;103532;-92
2022/04/03 05:43:54;;;;;;;;;2.00;2.00;;;;;13.09;36.38;97969.88;4875578;28;102839;-92
2022/04/03 05:46:20;;;;;;;;;2.00;2.00;;;;;13.07;37.07;97978.25;4883485;28;104533;-92
2022/04/03 05:48:47;;;;;;;;;3.00;3.00;;;;;13.09;36.77;97988.88;4892194;28;104193;-92
2022/04/03 05:51:14;;;;;;;;;3.00;2.00;;;;;13.07;36.63;97989.09;4885179;28;104399;-92
2022/04/03 05:53:41;;;;;;;;;1.75;1.75;;;;;13.09;36.73;97991.59;4885402;28;102654;-92
2022/04/03 05:56:09;;;;;;;;;3.00;2.00;;;;;13.08;36.20;97992.63;4884613;28;102716;-92
2022/04/03 05:58:36;;;;;;;;;3.00;2.75;;;;;13.08;36.51;97990.75;4879486;28;104261;-92
2022/04/03 06:01:03;;;;;;;;;2.00;1.75;;;;;13.08;36.56;97990.75;4864103;28;102490;-92
2022/04/03 06:03:30;;;;;;;;;2.00;2.00;;;;;13.06;36.31;98005.63;4883617;28;102815;-92
2022/04/03 06:05:57;;;;;;;;;1.25;1.25;;;;;13.09;36.15;98006.00;4879129;28;103722;-91
2022/04/03 06:08:24;;;;;;;;;2.00;1.50;;;;;13.09;36.70;98002.44;4880410;28;104064;-92
2022/04/03 06:10:51;;;;;;;;;2.25;1.50;;;;;13.08;37.03;98012.47;4884500;28;103155;-92
2022/04/03 06:13:18;;;;;;;;;2.00;1.50;;;;;13.10;36.90;98014.97;4878789;28;102258;-91
2022/04/03 06:15:46;;;;;;;;;1.25;1.25;;;;;13.10;36.19;98015.78;4879399;28;103823;-91
2022/04/03 06:18:15;;;;;;;;;2.75;1.75;;;;;13.11;37.06;98017.47;4881218;28;104521;-92
2022/04/03 06:20:42;;;;;;;;;3.25;2.00;;;;;13.10;36.50;98015.78;4883679;28;103266;-92
2022/04/03 06:23:12;;;;;;;;;2.25;2.00;;;;;13.09;36.89;98025.00;4879582;28;102294;-92
2022/04/03 06:25:43;;;;;;;;;3.00;1.25;;;;;13.11;36.62;98022.06;4882650;28;102785;-92
2022/04/03 06:28:10;;;;;;;;;1.50;1.50;;;;;13.11;36.52;98025.59;4882960;28;104352;-91
2022/04/03 06:30:37;;;;;;;;;1.25;1.25;;;;;13.11;36.89;98033.75;4854709;28;103226;-91
2022/04/03 06:33:04;;;;;;;;;2.00;2.00;;;;;13.11;35.96;98030.19;4871174;28;102790;-91
2022/04/03 06:35:31;;;;;;;;;2.75;2.00;;;;;13.09;35.84;98035.84;4873313;28;102304;-90
2022/04/03 06:37:58;;;;;;;;;1.50;1.00;;;;;13.09;36.50;98035.84;4875998;28;104171;-91
2022/04/03 06:40:25;;;;;;;;;1.00;1.00;;;;;13.11;36.53;98033.75;4879319;28;103495;-92
2022/04/03 06:42:52;;;;;;;;;4.75;2.00;;;;;13.11;36.08;98039.19;4885179;28;102464;-93
2022/04/03 06:45:20;;;;;;;;;2.00;2.00;;;;;13.11;36.42;98039.19;4844842;28;102503;-92
2022/04/03 06:47:47;;;;;;;;;2.25;2.00;;;;;13.12;36.08;98035.41;4864715;28;104283;-92
2022/04/03 06:50:17;;;;;;;;;2.25;1.00;;;;;13.11;36.73;98047.31;4886910;28;102191;-93
2022/04/03 06:52:47;;;;;;;;;2.00;1.00;;;;;13.12;36.20;98056.28;4879290;28;104050;-92
2022/04/03 06:55:14;;;;;;;;;1.00;0.75;;;;;13.13;36.63;98053.34;4897106;28;102174;-93
2022/04/03 06:57:42;;;;;;;;;2.50;1.50;;;;;13.14;35.95;98063.16;4893978;28;104204;-93
2022/04/03 07:00:11;;;;;;;;;2.00;1.25;;;;;13.13;36.30;98064.22;4886327;28;102517;-93
2022/04/03 07:02:38;;;;;;;;;2.00;1.50;;;;;13.13;36.36;98055.25;4890093;28;102697;-91
2022/04/03 07:05:06;;;;;;;;;1.00;1.00;;;;;13.16;36.63;98061.03;4884195;28;102248;-92
2022/04/03 07:07:33;;;;;;;;;3.00;1.00;;;;;13.16;36.67;98063.75;4866875;28;105111;-93
2022/04/03 07:10:01;;;;;;;;;2.25;1.00;;;;;13.16;36.60;98062.91;4889541;28;102323;-93
2022/04/03 07:12:28;;;;;;;;;2.00;1.00;;;;;13.18;36.33;98071.66;4892787;28;102400;-93
2022/04/03 07:14:56;;;;;;;;;1.25;1.25;;;;;13.17;36.84;98070.84;4874952;28;104565;-93
2022/04/03 07:17:24;;;;;;;;;1.00;1.00;;;;;13.18;35.98;98067.06;4880524;28;103112;-90
2022/04/03 07:19:51;;;;;;;;;1.00;1.00;;;;;13.19;35.71;98076.03;4885672;28;103600;-90
2022/04/03 07:22:18;;;;;;;;;1.75;1.75;;;;;13.19;36.62;98076.03;4888359;28;102536;-87
2022/04/03 07:24:45;;;;;;;;;3.00;2.00;;;;;13.19;35.77;98079.56;4886026;28;102638;-86
2022/04/03 07:27:12;;;;;;;;;1.00;1.00;;;;;13.19;35.86;98084.19;4890972;28;104074;-87
2022/04/03 07:29:39;;;;;;;;;2.00;1.00;;;;;13.19;35.94;98085.00;4877103;28;103302;-87
2022/04/03 07:32:06;;;;;;;;;2.00;1.00;;;;;13.19;36.55;98089.63;4893434;28;102433;-87
2022/04/03 07:34:33;;;;;;;;;1.00;1.00;;;;;13.20;36.27;98094.78;4899362;28;102463;-87
2022/04/03 07:37:03;;;;;;;;;1.25;1.25;;;;;13.20;36.34;98096.69;4886265;28;104090;-87
2022/04/03 07:39:30;;;;;;;;;1.00;1.00;;;;;13.20;36.18;98097.50;4884279;28;104035;-87
2022/04/03 07:41:57;;;;;;;;;1.00;1.00;;;;;13.20;36.01;98102.94;4886341;28;102512;-86
2022/04/03 07:44:24;;;;;;;;;1.50;1.25;;;;;13.21;36.20;98103.78;4868847;28;103367;-86
2022/04/03 07:46:51;;;;;;;;;2.00;2.00;;;;;13.21;35.79;98109.19;4882937;28;103870;-87
2022/04/03 07:49:18;;;;;;;;;1.00;1.00;;;;;13.23;36.47;98113.38;4869778;28;102042;-87
2022/04/03 07:51:45;;;;;;;;;3.00;2.00;;;;;13.22;35.94;98117.13;4888181;28;102295;-87
2022/04/03 07:54:12;;;;;;;;;1.25;1.25;;;;;13.23;36.43;98123.38;4890733;28;102476;-87
2022/04/03 07:56:38;;;;;;;;;1.00;1.00;;;;;13.24;35.48;98125.03;4888034;28;104079;-87
2022/04/03 07:59:08;;;;;;;;;2.00;1.75;;;;;13.24;35.69;98131.28;4886715;28;102325;-87
2022/04/03 08:01:40;;;;;;;;;2.25;1.75;;;;;13.26;35.99;98133.78;4885676;28;102254;-86
2022/04/03 08:04:11;;;;;;;;;1.00;1.00;;;;;13.26;36.39;98133.78;4886186;28;103737;-86
2022/04/03 08:06:39;;;;;;;;;1.00;1.00;;;;;13.27;36.26;98130.84;4885652;28;104034;-86
2022/04/03 08:09:07;;;;;;;;;1.00;1.00;;;;;13.28;36.22;98143.34;4886759;28;102434;-86
2022/04/03 08:11:34;;;;;;;;;2.50;2.50;;;;;13.29;36.24;98139.56;4869784;28;102441;-87
2022/04/03 08:14:01;;;;;;;;;0.00;0.00;;;;;13.28;35.73;98148.78;4885152;28;102606;-87
2022/04/03 08:16:28;;;;;;;;;1.00;1.00;;;;;13.27;35.33;98141.72;4874364;28;104431;-87
2022/04/03 08:18:57;;;;;;;;;1.50;1.50;;;;;13.29;35.32;98146.88;4887765;28;102422;-87
2022/04/03 08:21:24;;;;;;;;;2.00;2.00;;;;;13.30;35.75;98162.13;4885045;28;102234;-89
2022/04/03 08:23:51;;;;;;;;;1.00;1.00;;;;;13.29;35.45;98155.88;4894418;28;102270;-89
2022/04/03 08:26:19;;;;;;;;;0.75;0.75;;;;;13.30;35.43;98152.09;4886027;28;103971;-89
2022/04/03 08:28:46;;;;;;;;;1.00;1.00;;;;;13.29;36.06;98155.88;4877871;28;103274;-89
2022/04/03 08:31:13;;;;;;;;;1.00;1.00;;;;;13.30;36.14;98162.13;4887020;28;103477;-88
2022/04/03 08:33:40;;;;;;;;;2.00;2.00;;;;;13.29;35.12;98155.88;4896810;28;102161;-89
2022/04/03 08:36:06;;;;;;;;;1.00;1.00;;;;;13.30;35.07;98156.69;4885155;28;103909;-89
2022/04/03 08:38:33;;;;;;;;;1.00;1.00;;;;;13.30;36.08;98159.41;4891911;28;102482;-88
2022/04/03 08:41:01;;;;;;;;;1.00;1.00;;;;;13.30;35.10;98162.13;4903266;28;102470;-88
2022/04/03 08:43:31;;;;;;;;;1.00;1.00;;;;;13.29;35.87;98158.59;4891965;28;104252;-88
2022/04/03 08:45:58;;;;;;;;;2.50;2.00;;;;;13.30;35.11;98168.38;4875799;28;104305;-87
2022/04/03 08:48:26;;;;;;;;;1.00;1.00;;;;;13.31;35.99;98161.91;4888111;28;102247;-86
2022/04/03 08:50:53;;;;;;;;;2.00;2.00;;;;;13.32;35.92;98171.72;4877025;28;102437;-86
2022/04/03 08:53:21;;;;;;;;;1.00;1.00;;;;;13.32;35.32;98171.72;4874205;28;104709;-87
2022/04/03 08:55:48;;;;;;;;;2.00;2.00;;;;;13.34;36.06;98175.03;4888022;28;104157;-87
2022/04/03 08:58:17;;;;;;;;;2.00;2.00;;;;;13.35;36.14;98176.69;4889649;28;102509;-88
2022/04/03 09:00:44;;;;;;;;;1.00;1.00;;;;;13.36;35.61;98178.34;4880592;28;103356;-87
2022/04/03 09:03:12;;;;;;;;;2.00;1.00;;;;;13.36;36.15;98172.09;4892547;28;102666;-86
2022/04/03 09:05:41;;;;;;;;;1.00;1.00;;;;;13.36;35.27;98178.34;4894344;28;104102;-86
2022/04/03 09:08:08;;;;;;;;;2.00;2.00;;;;;13.36;35.73;98189.22;4889165;28;102423;-86
2022/04/03 09:10:35;;;;;;;;;1.00;1.00;;;;;13.38;35.25;98191.69;4888533;28;102581;-86
2022/04/03 09:13:02;;;;;;;;;1.75;1.00;;;;;13.36;35.80;98194.66;4889005;28;103413;-86
2022/04/03 09:15:30;;;;;;;;;1.00;1.00;;;;;13.38;35.36;98192.50;4864648;28;104211;-87
2022/04/03 09:17:58;;;;;;;;;2.00;1.50;;;;;13.38;35.73;98199.81;4870022;28;102776;-87
2022/04/03 09:20:32;;;;;;;;;1.75;1.75;;;;;13.36;35.16;98200.06;4891441;28;102567;-87
2022/04/03 09:23:01;;;;;;;;;2.00;2.00;;;;;13.36;35.34;98189.22;4887986;28;102473;-87
2022/04/03 09:25:41;;;;;;;;;2.00;1.00;;;;;13.39;35.65;98202.31;4865836;28;104238;-87
2022/04/03 09:28:14;;;;;;;;;2.00;2.00;;;;;13.40;35.24;98204.00;4887967;28;103582;-87
2022/04/03 09:30:45;;;;;;;;;1.75;1.00;;;;;13.43;35.53;98201.84;4879277;28;103103;-87
2022/04/03 09:33:13;;;;;;;;;1.75;1.75;;;;;13.42;35.80;98211.88;4890986;28;102511;-87
2022/04/03 09:35:53;;;;;;;;;1.00;1.00;;;;;13.43;35.29;98208.13;4889605;28;104135;-87
2022/04/03 09:38:20;;;;;;;;;1.25;1.00;;;;;13.44;35.87;98211.66;4888660;28;102611;-87
2022/04/03 09:40:49;;;;;;;;;1.00;1.00;;;;;13.45;36.06;98207.91;4889589;28;102535;-87
2022/04/03 09:43:26;;;;;;;;;1.00;1.00;;;;;13.45;35.82;98221.47;4891031;28;102662;-87
2022/04/03 09:45:53;;;;;;;;;1.00;1.00;;;;;13.47;35.83;98219.34;4862975;28;103822;-87
2022/04/03 09:48:25;;;;;;;;;1.50;1.50;;;;;13.47;35.29;98227.50;4902761;28;102433;-87
2022/04/03 09:50:56;;;;;;;;;1.00;1.00;;;;;13.48;35.46;98219.13;4880595;28;102420;-87
2022/04/03 09:53:23;;;;;;;;;1.00;1.00;;;;;13.48;35.79;98219.13;4892845;28;102197;-87
2022/04/03 09:55:50;;;;;;;;;2.00;1.00;;;;;13.49;36.26;98220.78;4889083;28;104219;-87
2022/04/03 09:58:17;;;;;;;;;1.50;1.00;;;;;13.49;35.44;98220.78;4872082;28;102217;-87
2022/04/03 10:00:44;;;;;;;;;1.00;1.00;;;;;13.50;35.97;98216.19;4877390;28;102835;-87
2022/04/03 10:03:12;;;;;;;;;1.75;1.75;;;;;13.52;35.19;98230.34;4885717;28;102543;-87
2022/04/03 10:05:40;;;;;;;;;1.75;1.00;;;;;13.51;35.55;98226.81;4899125;28;103488;-87
2022/04/03 10:08:07;;;;;;;;;2.00;2.00;;;;;13.51;36.03;98234.16;4902663;28;102648;-87
2022/04/03 10:10:35;;;;;;;;;1.75;1.75;;;;;13.51;36.18;98231.44;4906258;28;102371;-87
2022/04/03 10:13:03;;;;;;;;;1.00;1.00;;;;;13.51;35.58;98239.59;4872040;28;102388;-87
2022/04/03 10:15:30;;;;;;;;;0.25;0.25;;;;;13.50;35.76;98237.94;4883490;28;104130;-87
2022/04/03 10:17:57;;;;;;;;;1.00;1.00;;;;;13.51;35.51;98245.03;4887472;28;103500;-87
2022/04/03 10:20:24;;;;;;;;;1.00;1.00;;;;;13.51;35.18;98240.38;4888408;28;102218;-87
2022/04/03 10:22:55;;;;;;;;;1.75;1.00;;;;;13.52;36.02;98235.78;4889248;28;102630;-87
2022/04/03 10:25:28;;;;;;;;;2.00;1.75;;;;;13.55;36.08;98230.75;4871049;28;104254;-87
2022/04/03 10:28:01;;;;;;;;;0.00;0.00;;;;;13.58;35.62;98243.03;4889666;28;102524;-87
2022/04/03 10:30:39;;;;;;;;;1.00;1.00;;;;;13.55;35.52;98243.50;4869762;28;102226;-87
2022/04/03 10:33:07;;;;;;;;;0.50;0.50;;;;;13.55;35.57;98238.91;4882657;28;103562;-87
2022/04/03 10:35:36;;;;;;;;;2.00;2.00;;;;;13.57;35.13;98241.38;4887043;28;104117;-87
2022/04/03 10:38:04;;;;;;;;;1.00;1.00;;;;;13.57;35.35;98250.34;4886096;28;102110;-87
2022/04/03 10:40:33;;;;;;;;;1.00;0.75;;;;;13.59;35.11;98239.28;4892404;28;103309;-87
2022/04/03 10:43:06;;;;;;;;;1.75;1.25;;;;;13.58;35.43;98234.88;4891369;28;101968;-87
2022/04/03 10:45:36;;;;;;;;;0.75;0.75;;;;;13.60;36.18;98238.22;4888950;28;104096;-87
2022/04/03 10:48:21;;;;;;;;;1.00;1.00;;;;;13.58;35.61;98235.72;4880624;28;102499;-87
2022/04/03 10:50:59;;;;;;;;;0.00;0.00;;;;;13.58;35.90;98243.03;4887028;28;102026;-87
2022/04/03 10:53:33;;;;;;;;;2.00;1.00;;;;;13.58;35.80;98235.72;4882408;28;102429;-87
2022/04/03 10:56:07;;;;;;;;;1.00;1.00;;;;;13.59;36.12;98241.97;4880762;28;103483;-88
2022/04/03 10:58:45;;;;;;;;;1.00;1.00;;;;;13.60;34.94;98247.16;4880645;28;102427;-87
2022/04/03 11:01:33;;;;;;;;;2.00;1.00;;;;;13.59;35.95;98252.84;4880669;28;102863;-86
2022/04/03 11:04:07;;;;;;;;;0.75;0.50;;;;;13.58;35.78;98246.59;4885243;28;102133;-87
2022/04/03 11:06:36;;;;;;;;;1.00;1.00;;;;;13.59;35.51;98250.97;4887415;28;104093;-87
2022/04/03 11:09:09;;;;;;;;;1.00;1.00;;;;;13.61;35.00;98256.16;4880486;28;102262;-86
2022/04/03 11:11:45;;;;;;;;;1.00;1.00;;;;;13.60;35.10;98259.94;4886343;28;102319;-86
2022/04/03 11:14:33;;;;;;;;;1.00;1.00;;;;;13.62;35.55;98257.81;4890438;28;102271;-85
2022/04/03 11:17:00;;;;;;;;;2.00;1.00;;;;;13.60;35.11;98255.31;4862887;28;103976;-86
2022/04/03 11:19:44;;;;;;;;;1.00;1.00;;;;;13.61;35.62;98256.97;4886492;28;103663;-86
2022/04/03 11:22:17;;;;;;;;;1.00;1.00;;;;;13.61;35.93;98262.41;4893618;28;102150;-87
2022/04/03 11:24:44;;;;;;;;;1.00;1.00;;;;;13.59;35.48;98261.84;4898090;28;102015;-86
2022/04/03 11:27:12;;;;;;;;;1.00;1.00;;;;;13.60;36.04;98268.09;4899160;28;103419;-86